sensor_id;sensor_type;location;lat;lon;timestamp;pressure;altitude;pressure_sealevel;temperature;humidity
11085;BME280;5596;46.826;8.650;2023-05-18T00:01:53;96476.34;;;7.30;100.00
11085;BME280;5596;46.826;8.650;2023-05-18T00:04:22;96476.94;;;7.32;100.00
11085;BME280;5596;46.826;8.650;2023-05-18T00:06:50;96475.72;;;7.28;100.00
11085;BME280;5596;46.826;8.650;2023-05-18T00:09:22;96471.78;;;7.24;100.00
11085;BME280;5596;46.826;8.650;2023-05-18T00:11:48;96471.38;;;7.20;100.00
11085;BME280;5596;46.826;8.650;2023-05-18T00:14:16;96478.19;;;7.23;100.00
11085;BME280;5596;46.826;8.650;2023-05-18T00:16:42;96475.09;;;7.26;100.00
11085;BME280;5596;46.826;8.650;2023-05-18T00:19:09;96474.06;;;7.27;100.00
11085;BME280;5596;46.826;8.650;2023-05-18T00:21:40;96470.13;;;7.23;100.00
11085;BME280;5596;46.826;8.650;2023-05-18T00:24:07;96479.66;;;7.19;100.00
11085;BME280;5596;46.826;8.650;2023-05-18T00:26:35;96475.31;;;7.11;100.00
11085;BME280;5596;46.826;8.650;2023-05-18T00:29:02;96472.19;;;7.08;100.00
11085;BME280;5596;46.826;8.650;2023-05-18T00:31:29;96475.50;;;7.10;100.00
11085;BME280;5596;46.826;8.650;2023-05-18T00:33:57;96475.31;;;7.05;100.00
11085;BME280;5596;46.826;8.650;2023-05-18T00:36:24;96473.44;;;7.05;100.00
11085;BME280;5596;46.826;8.650;2023-05-18T00:38:52;96471.59;;;7.06;100.00
11085;BME280;5596;46.826;8.650;2023-05-18T00:41:19;96482.94;;;7.08;100.00
11085;BME280;5596;46.826;8.650;2023-05-18T00:43:47;96473.41;;;6.99;100.00
11085;BME280;5596;46.826;8.650;2023-05-18T00:46:13;96470.94;;;6.91;100.00
11085;BME280;5596;46.826;8.650;2023-05-18T00:48:40;96469.50;;;6.88;100.00
11085;BME280;5596;46.826;8.650;2023-05-18T00:51:07;96474.63;;;6.83;100.00
11085;BME280;5596;46.826;8.650;2023-05-18T00:53:34;96473.59;;;6.77;100.00
11085;BME280;5596;46.826;8.650;2023-05-18T00:56:02;96473.38;;;6.72;100.00
11085;BME280;5596;46.826;8.650;2023-05-18T00:58:29;96471.75;;;6.71;100.00
11085;BME280;5596;46.826;8.650;2023-05-18T01:00:56;96460.59;;;6.74;100.00
11085;BME280;5596;46.826;8.650;2023-05-18T01:03:23;96464.72;;;6.77;100.00
11085;BME280;5596;46.826;8.650;2023-05-18T01:05:54;96467.41;;;6.77;100.00
11085;BME280;5596;46.826;8.650;2023-05-18T01:08:22;96464.53;;;6.78;100.00
11085;BME280;5596;46.826;8.650;2023-05-18T01:10:50;96465.75;;;6.76;100.00
11085;BME280;5596;46.826;8.650;2023-05-18T01:13:22;96459.31;;;6.64;100.00
11085;BME280;5596;46.826;8.650;2023-05-18T01:15:52;96454.38;;;6.54;100.00
11085;BME280;5596;46.826;8.650;2023-05-18T01:18:22;96454.13;;;6.56;100.00
11085;BME280;5596;46.826;8.650;2023-05-18T01:20:56;96460.97;;;6.58;100.00
11085;BME280;5596;46.826;8.650;2023-05-18T01:26:15;96461.97;;;6.44;100.00
11085;BME280;5596;46.826;8.650;2023-05-18T01:28:50;96460.88;;;6.38;100.00
11085;BME280;5596;46.826;8.650;2023-05-18T01:31:17;96458.00;;;6.33;100.00
11085;BME280;5596;46.826;8.650;2023-05-18T01:33:46;96455.69;;;6.30;100.00
11085;BME280;5596;46.826;8.650;2023-05-18T01:36:13;96460.03;;;6.25;100.00
11085;BME280;5596;46.826;8.650;2023-05-18T01:38:39;96456.31;;;6.19;100.00
11085;BME280;5596;46.826;8.650;2023-05-18T01:41:10;96454.81;;;6.10;100.00
11085;BME280;5596;46.826;8.650;2023-05-18T01:43:44;96446.59;;;6.12;100.00
11085;BME280;5596;46.826;8.650;2023-05-18T01:46:15;96448.44;;;6.11;100.00
11085;BME280;5596;46.826;8.650;2023-05-18T01:48:45;96449.25;;;6.12;100.00
11085;BME280;5596;46.826;8.650;2023-05-18T01:51:14;96453.56;;;6.13;100.00
11085;BME280;5596;46.826;8.650;2023-05-18T01:53:42;96445.78;;;6.18;100.00
11085;BME280;5596;46.826;8.650;2023-05-18T01:56:10;96452.59;;;6.20;100.00
11085;BME280;5596;46.826;8.650;2023-05-18T01:58:38;96441.44;;;6.23;100.00
11085;BME280;5596;46.826;8.650;2023-05-18T02:01:07;96441.88;;;6.27;100.00
11085;BME280;5596;46.826;8.650;2023-05-18T02:03:33;96445.41;;;6.34;100.00
11085;BME280;5596;46.826;8.650;2023-05-18T02:06:00;96440.69;;;6.36;100.00
11085;BME280;5596;46.826;8.650;2023-05-18T02:08:27;96446.63;;;6.31;100.00
11085;BME280;5596;46.826;8.650;2023-05-18T02:10:54;96442.31;;;6.30;100.00
11085;BME280;5596;46.826;8.650;2023-05-18T02:13:21;96437.38;;;6.34;100.00
11085;BME280;5596;46.826;8.650;2023-05-18T02:15:47;96437.19;;;6.35;100.00
11085;BME280;5596;46.826;8.650;2023-05-18T02:18:16;96438.84;;;6.36;100.00
11085;BME280;5596;46.826;8.650;2023-05-18T02:20:43;96441.34;;;6.44;100.00
11085;BME280;5596;46.826;8.650;2023-05-18T02:23:13;96436.56;;;6.46;100.00
11085;BME280;5596;46.826;8.650;2023-05-18T02:25:40;96439.03;;;6.35;100.00
11085;BME280;5596;46.826;8.650;2023-05-18T02:28:08;96436.34;;;6.28;100.00
11085;BME280;5596;46.826;8.650;2023-05-18T02:30:36;96439.59;;;6.24;100.00
11085;BME280;5596;46.826;8.650;2023-05-18T02:33:03;96427.63;;;6.20;100.00
11085;BME280;5596;46.826;8.650;2023-05-18T02:35:31;96431.34;;;6.19;100.00
11085;BME280;5596;46.826;8.650;2023-05-18T02:37:58;96427.22;;;6.23;100.00
11085;BME280;5596;46.826;8.650;2023-05-18T02:40:24;96420.25;;;6.28;100.00
11085;BME280;5596;46.826;8.650;2023-05-18T02:42:51;96428.06;;;6.30;100.00
11085;BME280;5596;46.826;8.650;2023-05-18T02:45:18;96429.31;;;6.34;100.00
11085;BME280;5596;46.826;8.650;2023-05-18T02:47:45;96417.97;;;6.32;100.00
11085;BME280;5596;46.826;8.650;2023-05-18T02:50:12;96425.38;;;6.30;100.00
11085;BME280;5596;46.826;8.650;2023-05-18T02:52:43;96429.13;;;6.29;100.00
11085;BME280;5596;46.826;8.650;2023-05-18T02:55:13;96426.63;;;6.27;100.00
11085;BME280;5596;46.826;8.650;2023-05-18T02:58:01;96420.84;;;6.24;100.00
11085;BME280;5596;46.826;8.650;2023-05-18T03:01:00;96412.41;;;6.27;100.00
11085;BME280;5596;46.826;8.650;2023-05-18T03:03:37;96418.59;;;6.27;100.00
11085;BME280;5596;46.826;8.650;2023-05-18T03:06:06;96424.16;;;6.26;100.00
11085;BME280;5596;46.826;8.650;2023-05-18T03:08:35;96417.34;;;6.30;100.00
11085;BME280;5596;46.826;8.650;2023-05-18T03:11:02;96410.16;;;6.37;100.00
11085;BME280;5596;46.826;8.650;2023-05-18T03:13:29;96409.34;;;6.43;100.00
11085;BME280;5596;46.826;8.650;2023-05-18T03:15:57;96409.75;;;6.46;100.00
11085;BME280;5596;46.826;8.650;2023-05-18T03:18:24;96409.53;;;6.48;100.00
11085;BME280;5596;46.826;8.650;2023-05-18T03:20:52;96409.97;;;6.52;100.00
11085;BME280;5596;46.826;8.650;2023-05-18T03:23:20;96399.06;;;6.53;100.00
11085;BME280;5596;46.826;8.650;2023-05-18T03:25:49;96408.75;;;6.54;100.00
11085;BME280;5596;46.826;8.650;2023-05-18T03:28:19;96410.38;;;6.55;100.00
11085;BME280;5596;46.826;8.650;2023-05-18T03:30:45;96413.91;;;6.56;100.00
11085;BME280;5596;46.826;8.650;2023-05-18T03:33:12;96415.56;;;6.57;100.00
11085;BME280;5596;46.826;8.650;2023-05-18T03:35:39;96410.19;;;6.57;100.00
11085;BME280;5596;46.826;8.650;2023-05-18T03:38:07;96413.06;;;6.55;100.00
11085;BME280;5596;46.826;8.650;2023-05-18T03:40:36;96415.53;;;6.50;100.00
11085;BME280;5596;46.826;8.650;2023-05-18T03:43:05;96415.94;;;6.47;100.00
11085;BME280;5596;46.826;8.650;2023-05-18T03:45:32;96417.19;;;6.51;100.00
11085;BME280;5596;46.826;8.650;2023-05-18T03:47:59;96416.19;;;6.52;100.00
11085;BME280;5596;46.826;8.650;2023-05-18T03:50:26;96419.69;;;6.53;100.00
11085;BME280;5596;46.826;8.650;2023-05-18T03:52:54;96426.72;;;6.54;100.00
11085;BME280;5596;46.826;8.650;2023-05-18T03:55:21;96433.28;;;6.51;100.00
11085;BME280;5596;46.826;8.650;2023-05-18T03:57:48;96427.94;;;6.51;100.00
11085;BME280;5596;46.826;8.650;2023-05-18T04:00:17;96430.41;;;6.53;100.00
11085;BME280;5596;46.826;8.650;2023-05-18T04:02:44;96427.53;;;6.54;100.00
11085;BME280;5596;46.826;8.650;2023-05-18T04:05:19;96437.00;;;6.57;100.00
11085;BME280;5596;46.826;8.650;2023-05-18T04:07:46;96437.22;;;6.55;100.00
11085;BME280;5596;46.826;8.650;2023-05-18T04:10:12;96448.16;;;6.54;100.00
11085;BME280;5596;46.826;8.650;2023-05-18T04:12:41;96449.19;;;6.46;100.00
11085;BME280;5596;46.826;8.650;2023-05-18T04:15:08;96448.53;;;6.44;100.00
11085;BME280;5596;46.826;8.650;2023-05-18T04:17:40;96458.44;;;6.43;100.00
11085;BME280;5596;46.826;8.650;2023-05-18T04:20:10;96455.97;;;6.42;100.00
11085;BME280;5596;46.826;8.650;2023-05-18T04:22:38;96460.94;;;6.45;100.00
11085;BME280;5596;46.826;8.650;2023-05-18T04:25:07;96462.38;;;6.47;100.00
11085;BME280;5596;46.826;8.650;2023-05-18T04:27:35;96462.16;;;6.49;100.00
11085;BME280;5596;46.826;8.650;2023-05-18T04:30:03;96460.13;;;6.51;100.00
11085;BME280;5596;46.826;8.650;2023-05-18T04:32:33;96463.81;;;6.50;100.00
11085;BME280;5596;46.826;8.650;2023-05-18T04:35:02;96467.53;;;6.49;100.00
11085;BME280;5596;46.826;8.650;2023-05-18T04:37:29;96460.94;;;6.52;100.00
11085;BME280;5596;46.826;8.650;2023-05-18T04:39:57;96469.19;;;6.50;100.00
11085;BME280;5596;46.826;8.650;2023-05-18T04:42:29;96472.25;;;6.40;100.00
11085;BME280;5596;46.826;8.650;2023-05-18T04:44:56;96464.19;;;6.34;100.00
11085;BME280;5596;46.826;8.650;2023-05-18T04:47:23;96467.25;;;6.31;100.00
11085;BME280;5596;46.826;8.650;2023-05-18T04:49:49;96468.72;;;6.27;100.00
11085;BME280;5596;46.826;8.650;2023-05-18T04:52:19;96470.75;;;6.25;100.00
11085;BME280;5596;46.826;8.650;2023-05-18T04:54:47;96469.50;;;6.21;100.00
11085;BME280;5596;46.826;8.650;2023-05-18T04:57:14;96478.59;;;6.20;100.00
11085;BME280;5596;46.826;8.650;2023-05-18T04:59:41;96473.22;;;6.20;100.00
11085;BME280;5596;46.826;8.650;2023-05-18T05:02:11;96475.47;;;6.23;100.00
11085;BME280;5596;46.826;8.650;2023-05-18T05:04:38;96464.16;;;6.21;100.00
11085;BME280;5596;46.826;8.650;2023-05-18T05:07:07;96479.59;;;6.19;100.00
11085;BME280;5596;46.826;8.650;2023-05-18T05:09:35;96468.25;;;6.17;100.00
11085;BME280;5596;46.826;8.650;2023-05-18T05:12:02;96468.63;;;6.14;100.00
11085;BME280;5596;46.826;8.650;2023-05-18T05:14:29;96470.72;;;6.12;100.00
11085;BME280;5596;46.826;8.650;2023-05-18T05:16:56;96471.09;;;6.08;100.00
11085;BME280;5596;46.826;8.650;2023-05-18T05:19:23;96469.88;;;6.11;100.00
11085;BME280;5596;46.826;8.650;2023-05-18T05:21:50;96481.00;;;6.15;100.00
11085;BME280;5596;46.826;8.650;2023-05-18T05:24:17;96472.97;;;6.15;100.00
11085;BME280;5596;46.826;8.650;2023-05-18T05:26:45;96471.13;;;6.22;100.00
11085;BME280;5596;46.826;8.650;2023-05-18T05:29:12;96470.97;;;6.30;100.00
11085;BME280;5596;46.826;8.650;2023-05-18T05:31:39;96472.88;;;6.36;100.00
11085;BME280;5596;46.826;8.650;2023-05-18T05:34:06;96472.88;;;6.42;100.00
11085;BME280;5596;46.826;8.650;2023-05-18T05:36:32;96473.91;;;6.48;100.00
11085;BME280;5596;46.826;8.650;2023-05-18T05:38:59;96467.97;;;6.59;100.00
11085;BME280;5596;46.826;8.650;2023-05-18T05:41:27;96476.28;;;6.71;100.00
11085;BME280;5596;46.826;8.650;2023-05-18T05:43:55;96478.16;;;6.83;100.00
11085;BME280;5596;46.826;8.650;2023-05-18T05:46:23;96477.94;;;6.85;100.00
11085;BME280;5596;46.826;8.650;2023-05-18T05:48:49;96483.75;;;6.89;100.00
11085;BME280;5596;46.826;8.650;2023-05-18T05:51:16;96479.63;;;6.93;100.00
11085;BME280;5596;46.826;8.650;2023-05-18T05:53:43;96475.69;;;6.95;100.00
11085;BME280;5596;46.826;8.650;2023-05-18T05:56:12;96482.53;;;7.04;100.00
11085;BME280;5596;46.826;8.650;2023-05-18T05:58:40;96481.50;;;7.12;100.00
11085;BME280;5596;46.826;8.650;2023-05-18T06:01:08;96487.06;;;7.17;100.00
11085;BME280;5596;46.826;8.650;2023-05-18T06:03:35;96483.97;;;7.20;100.00
11085;BME280;5596;46.826;8.650;2023-05-18T06:06:04;96486.66;;;7.27;100.00
11085;BME280;5596;46.826;8.650;2023-05-18T06:08:32;96491.63;;;7.36;100.00
11085;BME280;5596;46.826;8.650;2023-05-18T06:10:59;96499.47;;;7.44;100.00
11085;BME280;5596;46.826;8.650;2023-05-18T06:13:26;96497.63;;;7.51;100.00
11085;BME280;5596;46.826;8.650;2023-05-18T06:15:54;96505.25;;;7.61;100.00
11085;BME280;5596;46.826;8.650;2023-05-18T06:18:23;96503.81;;;7.72;100.00
11085;BME280;5596;46.826;8.650;2023-05-18T06:20:55;96509.38;;;7.83;100.00
11085;BME280;5596;46.826;8.650;2023-05-18T06:23:22;96495.28;;;7.94;100.00
11085;BME280;5596;46.826;8.650;2023-05-18T06:26:01;96500.88;;;8.06;100.00
11085;BME280;5596;46.826;8.650;2023-05-18T06:28:47;96502.66;;;8.19;100.00
11085;BME280;5596;46.826;8.650;2023-05-18T06:31:23;96498.91;;;8.26;100.00
11085;BME280;5596;46.826;8.650;2023-05-18T06:33:59;96499.53;;;8.28;100.00
11085;BME280;5596;46.826;8.650;2023-05-18T06:36:26;96506.38;;;8.38;100.00
11085;BME280;5596;46.826;8.650;2023-05-18T06:38:53;96507.78;;;8.47;100.00
11085;BME280;5596;46.826;8.650;2023-05-18T06:41:20;96503.41;;;8.59;100.00
11085;BME280;5596;46.826;8.650;2023-05-18T06:43:47;96501.66;;;8.71;100.00
11085;BME280;5596;46.826;8.650;2023-05-18T06:46:28;96505.78;;;8.80;100.00
11085;BME280;5596;46.826;8.650;2023-05-18T06:49:07;96499.31;;;8.88;100.00
11085;BME280;5596;46.826;8.650;2023-05-18T06:51:34;96508.78;;;8.97;100.00
11085;BME280;5596;46.826;8.650;2023-05-18T06:54:01;96506.50;;;9.00;100.00
11085;BME280;5596;46.826;8.650;2023-05-18T06:56:28;96512.66;;;9.07;100.00
11085;BME280;5596;46.826;8.650;2023-05-18T06:58:54;96511.38;;;9.17;100.00
11085;BME280;5596;46.826;8.650;2023-05-18T07:01:22;96512.75;;;9.26;100.00
11085;BME280;5596;46.826;8.650;2023-05-18T07:03:49;96511.88;;;9.32;100.00
11085;BME280;5596;46.826;8.650;2023-05-18T07:06:17;96510.13;;;9.44;100.00
11085;BME280;5596;46.826;8.650;2023-05-18T07:08:44;96502.38;;;9.54;100.00
11085;BME280;5596;46.826;8.650;2023-05-18T07:11:12;96511.00;;;9.63;100.00
11085;BME280;5596;46.826;8.650;2023-05-18T07:13:39;96508.28;;;9.69;100.00
11085;BME280;5596;46.826;8.650;2023-05-18T07:16:05;96503.66;;;9.76;100.00
11085;BME280;5596;46.826;8.650;2023-05-18T07:18:32;96513.75;;;9.81;100.00
11085;BME280;5596;46.826;8.650;2023-05-18T07:20:59;96505.00;;;9.85;100.00
11085;BME280;5596;46.826;8.650;2023-05-18T07:23:27;96508.28;;;9.87;100.00
11085;BME280;5596;46.826;8.650;2023-05-18T07:25:54;96512.44;;;9.90;100.00
11085;BME280;5596;46.826;8.650;2023-05-18T07:28:21;96508.41;;;9.99;100.00
11085;BME280;5596;46.826;8.650;2023-05-18T07:30:48;96509.38;;;10.05;100.00
11085;BME280;5596;46.826;8.650;2023-05-18T07:33:15;96513.06;;;10.10;100.00
11085;BME280;5596;46.826;8.650;2023-05-18T07:35:42;96511.16;;;10.17;100.00
11085;BME280;5596;46.826;8.650;2023-05-18T07:38:09;96520.22;;;10.23;100.00
11085;BME280;5596;46.826;8.650;2023-05-18T07:40:38;96518.72;;;10.27;100.00
11085;BME280;5596;46.826;8.650;2023-05-18T07:43:05;96509.28;;;10.36;100.00
11085;BME280;5596;46.826;8.650;2023-05-18T07:45:32;96511.47;;;10.46;100.00
11085;BME280;5596;46.826;8.650;2023-05-18T07:47:59;96522.19;;;10.52;100.00
11085;BME280;5596;46.826;8.650;2023-05-18T07:50:26;96514.69;;;10.54;100.00
11085;BME280;5596;46.826;8.650;2023-05-18T07:52:53;96521.88;;;10.60;100.00
11085;BME280;5596;46.826;8.650;2023-05-18T07:55:20;96520.97;;;10.67;100.00
11085;BME280;5596;46.826;8.650;2023-05-18T07:57:49;96520.22;;;10.78;100.00
11085;BME280;5596;46.826;8.650;2023-05-18T08:00:16;96512.25;;;10.83;100.00
11085;BME280;5596;46.826;8.650;2023-05-18T08:02:44;96521.06;;;10.90;100.00
11085;BME280;5596;46.826;8.650;2023-05-18T08:05:11;96524.38;;;10.92;100.00
11085;BME280;5596;46.826;8.650;2023-05-18T08:07:38;96521.38;;;11.00;100.00
11085;BME280;5596;46.826;8.650;2023-05-18T08:10:05;96522.41;;;10.99;100.00
11085;BME280;5596;46.826;8.650;2023-05-18T08:12:32;96525.06;;;11.06;100.00
11085;BME280;5596;46.826;8.650;2023-05-18T08:15:00;96529.25;;;11.02;100.00
11085;BME280;5596;46.826;8.650;2023-05-18T08:17:27;96543.69;;;10.95;100.00
11085;BME280;5596;46.826;8.650;2023-05-18T08:19:53;96537.44;;;10.95;100.00
11085;BME280;5596;46.826;8.650;2023-05-18T08:22:21;96533.69;;;10.96;100.00
11085;BME280;5596;46.826;8.650;2023-05-18T08:24:48;96536.25;;;10.91;100.00
11085;BME280;5596;46.826;8.650;2023-05-18T08:27:14;96534.53;;;10.96;100.00
11085;BME280;5596;46.826;8.650;2023-05-18T08:29:41;96532.66;;;10.97;100.00
11085;BME280;5596;46.826;8.650;2023-05-18T08:32:09;96536.97;;;10.98;100.00
11085;BME280;5596;46.826;8.650;2023-05-18T08:34:36;96543.13;;;11.05;100.00
11085;BME280;5596;46.826;8.650;2023-05-18T08:37:03;96531.84;;;11.08;100.00
11085;BME280;5596;46.826;8.650;2023-05-18T08:39:30;96527.66;;;11.12;100.00
11085;BME280;5596;46.826;8.650;2023-05-18T08:42:00;96531.84;;;11.08;100.00
11085;BME280;5596;46.826;8.650;2023-05-18T08:44:29;96535.88;;;11.17;100.00
11085;BME280;5596;46.826;8.650;2023-05-18T08:46:56;96541.66;;;11.21;100.00
11085;BME280;5596;46.826;8.650;2023-05-18T08:49:25;96542.94;;;11.18;100.00
11085;BME280;5596;46.826;8.650;2023-05-18T08:51:54;96537.97;;;11.15;100.00
11085;BME280;5596;46.826;8.650;2023-05-18T08:54:21;96543.88;;;11.12;100.00
11085;BME280;5596;46.826;8.650;2023-05-18T08:56:48;96548.78;;;11.15;100.00
11085;BME280;5596;46.826;8.650;2023-05-18T08:59:17;96545.53;;;11.13;100.00
11085;BME280;5596;46.826;8.650;2023-05-18T09:01:44;96556.00;;;11.21;100.00
11085;BME280;5596;46.826;8.650;2023-05-18T09:04:12;96546.38;;;11.25;100.00
11085;BME280;5596;46.826;8.650;2023-05-18T09:06:40;96542.75;;;11.31;100.00
11085;BME280;5596;46.826;8.650;2023-05-18T09:09:07;96541.84;;;11.37;100.00
11085;BME280;5596;46.826;8.650;2023-05-18T09:11:35;96544.06;;;11.41;100.00
11085;BME280;5596;46.826;8.650;2023-05-18T09:14:02;96540.81;;;11.50;100.00
11085;BME280;5596;46.826;8.650;2023-05-18T09:16:28;96548.34;;;11.48;100.00
11085;BME280;5596;46.826;8.650;2023-05-18T09:18:55;96546.91;;;11.46;100.00
11085;BME280;5596;46.826;8.650;2023-05-18T09:21:22;96554.94;;;11.52;100.00
11085;BME280;5596;46.826;8.650;2023-05-18T09:23:50;96551.16;;;11.53;100.00
11085;BME280;5596;46.826;8.650;2023-05-18T09:26:18;96556.84;;;11.63;100.00
11085;BME280;5596;46.826;8.650;2023-05-18T09:28:45;96548.41;;;11.71;100.00
11085;BME280;5596;46.826;8.650;2023-05-18T09:31:15;96554.09;;;11.82;100.00
11085;BME280;5596;46.826;8.650;2023-05-18T09:33:42;96549.03;;;11.85;100.00
11085;BME280;5596;46.826;8.650;2023-05-18T09:36:09;96554.59;;;11.90;100.00
11085;BME280;5596;46.826;8.650;2023-05-18T09:38:40;96553.97;;;12.00;100.00
11085;BME280;5596;46.826;8.650;2023-05-18T09:41:11;96553.28;;;12.04;100.00
11085;BME280;5596;46.826;8.650;2023-05-18T09:43:39;96555.66;;;12.12;100.00
11085;BME280;5596;46.826;8.650;2023-05-18T09:46:08;96566.34;;;12.19;100.00
11085;BME280;5596;46.826;8.650;2023-05-18T09:48:35;96559.66;;;12.22;100.00
11085;BME280;5596;46.826;8.650;2023-05-18T09:51:03;96553.53;;;12.15;100.00
11085;BME280;5596;46.826;8.650;2023-05-18T09:53:31;96562.59;;;12.20;100.00
11085;BME280;5596;46.826;8.650;2023-05-18T09:56:00;96566.97;;;12.33;100.00
11085;BME280;5596;46.826;8.650;2023-05-18T09:58:31;96559.53;;;12.17;100.00
11085;BME280;5596;46.826;8.650;2023-05-18T10:00:59;96564.38;;;12.15;100.00
11085;BME280;5596;46.826;8.650;2023-05-18T10:03:30;96559.53;;;12.17;100.00
11085;BME280;5596;46.826;8.650;2023-05-18T10:06:00;96558.59;;;12.23;100.00
11085;BME280;5596;46.826;8.650;2023-05-18T10:08:26;96556.59;;;12.30;100.00
11085;BME280;5596;46.826;8.650;2023-05-18T10:10:53;96562.72;;;12.37;100.00
11085;BME280;5596;46.826;8.650;2023-05-18T10:13:20;96563.91;;;12.41;100.00
11085;BME280;5596;46.826;8.650;2023-05-18T10:15:49;96559.63;;;12.45;100.00
11085;BME280;5596;46.826;8.650;2023-05-18T10:18:19;96560.47;;;12.45;100.00
11085;BME280;5596;46.826;8.650;2023-05-18T10:20:47;96560.00;;;12.48;100.00
11085;BME280;5596;46.826;8.650;2023-05-18T10:23:14;96570.09;;;12.53;100.00
11085;BME280;5596;46.826;8.650;2023-05-18T10:25:41;96565.88;;;12.57;100.00
11085;BME280;5596;46.826;8.650;2023-05-18T10:28:10;96565.75;;;12.52;100.00
11085;BME280;5596;46.826;8.650;2023-05-18T10:30:39;96564.47;;;12.55;100.00
11085;BME280;5596;46.826;8.650;2023-05-18T10:33:07;96564.31;;;12.61;100.00
11085;BME280;5596;46.826;8.650;2023-05-18T10:35:36;96563.84;;;12.76;100.00
11085;BME280;5596;46.826;8.650;2023-05-18T10:38:04;96573.88;;;12.75;100.00
11085;BME280;5596;46.826;8.650;2023-05-18T10:40:32;96570.56;;;12.73;100.00
11085;BME280;5596;46.826;8.650;2023-05-18T10:43:00;96575.53;;;12.65;100.00
11085;BME280;5596;46.826;8.650;2023-05-18T10:45:27;96573.78;;;12.59;100.00
11085;BME280;5596;46.826;8.650;2023-05-18T10:47:54;96578.00;;;12.66;100.00
11085;BME280;5596;46.826;8.650;2023-05-18T10:50:24;96575.53;;;12.65;100.00
11085;BME280;5596;46.826;8.650;2023-05-18T10:52:51;96573.88;;;12.64;100.00
11085;BME280;5596;46.826;8.650;2023-05-18T10:55:19;96572.91;;;12.70;100.00
11085;BME280;5596;46.826;8.650;2023-05-18T10:57:46;96568.81;;;12.67;100.00
11085;BME280;5596;46.826;8.650;2023-05-18T11:00:16;96565.28;;;12.67;100.00
11085;BME280;5596;46.826;8.650;2023-05-18T11:02:44;96565.66;;;12.59;100.00
11085;BME280;5596;46.826;8.650;2023-05-18T11:05:11;96567.63;;;12.51;100.00
11085;BME280;5596;46.826;8.650;2023-05-18T11:07:39;96568.69;;;12.50;100.00
11085;BME280;5596;46.826;8.650;2023-05-18T11:10:10;96568.59;;;12.57;100.00
11085;BME280;5596;46.826;8.650;2023-05-18T11:12:37;96576.22;;;12.60;100.00
11085;BME280;5596;46.826;8.650;2023-05-18T11:15:06;96572.47;;;12.61;100.00
11085;BME280;5596;46.826;8.650;2023-05-18T11:17:33;96576.59;;;12.52;100.00
11085;BME280;5596;46.826;8.650;2023-05-18T11:20:11;96577.41;;;12.52;100.00
11085;BME280;5596;46.826;8.650;2023-05-18T11:22:43;96584.16;;;12.50;100.00
11085;BME280;5596;46.826;8.650;2023-05-18T11:27:52;96584.16;;;12.50;100.00
11085;BME280;5596;46.826;8.650;2023-05-18T11:30:25;96578.81;;;12.55;100.00
11085;BME280;5596;46.826;8.650;2023-05-18T11:32:52;96575.88;;;12.57;100.00
11085;BME280;5596;46.826;8.650;2023-05-18T11:35:33;96573.41;;;12.67;100.00
11085;BME280;5596;46.826;8.650;2023-05-18T11:38:08;96568.31;;;12.70;100.00
11085;BME280;5596;46.826;8.650;2023-05-18T11:40:43;96577.03;;;12.72;100.00
11085;BME280;5596;46.826;8.650;2023-05-18T11:43:16;96577.28;;;12.71;100.00
11085;BME280;5596;46.826;8.650;2023-05-18T11:45:50;96578.19;;;12.76;100.00
11085;BME280;5596;46.826;8.650;2023-05-18T11:48:19;96580.81;;;12.71;100.00
11085;BME280;5596;46.826;8.650;2023-05-18T11:50:45;96574.09;;;12.74;100.00
11085;BME280;5596;46.826;8.650;2023-05-18T11:53:15;96574.94;;;12.74;100.00
11085;BME280;5596;46.826;8.650;2023-05-18T11:55:42;96581.78;;;12.65;100.00
11085;BME280;5596;46.826;8.650;2023-05-18T11:58:10;96583.66;;;12.53;100.00
11085;BME280;5596;46.826;8.650;2023-05-18T12:00:43;96582.50;;;12.49;100.00
11085;BME280;5596;46.826;8.650;2023-05-18T12:03:11;96578.81;;;12.43;100.00
11085;BME280;5596;46.826;8.650;2023-05-18T12:05:38;96583.41;;;12.43;100.00
11085;BME280;5596;46.826;8.650;2023-05-18T12:08:08;96582.00;;;12.52;100.00
11085;BME280;5596;46.826;8.650;2023-05-18T12:10:36;96577.53;;;12.58;100.00
11085;BME280;5596;46.826;8.650;2023-05-18T12:13:04;96580.72;;;12.66;100.00
11085;BME280;5596;46.826;8.650;2023-05-18T12:15:31;96574.94;;;12.74;100.00
11085;BME280;5596;46.826;8.650;2023-05-18T12:17:59;96574.69;;;12.64;100.00
11085;BME280;5596;46.826;8.650;2023-05-18T12:20:25;96576.94;;;12.67;100.00
11085;BME280;5596;46.826;8.650;2023-05-18T12:22:53;96582.00;;;12.64;100.00
11085;BME280;5596;46.826;8.650;2023-05-18T12:25:21;96578.56;;;12.68;100.00
11085;BME280;5596;46.826;8.650;2023-05-18T12:27:50;96577.03;;;12.72;100.00
11085;BME280;5596;46.826;8.650;2023-05-18T12:30:18;96579.16;;;12.70;100.00
11085;BME280;5596;46.826;8.650;2023-05-18T12:32:47;96577.63;;;12.63;100.00
11085;BME280;5596;46.826;8.650;2023-05-18T12:35:14;96581.78;;;12.65;100.00
11085;BME280;5596;46.826;8.650;2023-05-18T12:37:41;96577.63;;;12.63;100.00
11085;BME280;5596;46.826;8.650;2023-05-18T12:40:09;96579.88;;;12.66;100.00
11085;BME280;5596;46.826;8.650;2023-05-18T12:42:37;96563.41;;;12.67;100.00
11085;BME280;5596;46.826;8.650;2023-05-18T12:45:07;96570.69;;;12.67;100.00
11085;BME280;5596;46.826;8.650;2023-05-18T12:47:39;96570.44;;;12.68;100.00
11085;BME280;5596;46.826;8.650;2023-05-18T12:50:06;96571.63;;;12.72;100.00
11085;BME280;5596;46.826;8.650;2023-05-18T12:52:33;96576.22;;;12.72;100.00
11085;BME280;5596;46.826;8.650;2023-05-18T12:55:00;96577.03;;;12.72;100.00
11085;BME280;5596;46.826;8.650;2023-05-18T12:57:28;96570.34;;;12.75;100.00
11085;BME280;5596;46.826;8.650;2023-05-18T12:59:57;96571.16;;;12.75;100.00
11085;BME280;5596;46.826;8.650;2023-05-18T13:02:34;96576.00;;;12.73;100.00
11085;BME280;5596;46.826;8.650;2023-05-18T13:05:03;96568.44;;;12.75;100.00
11085;BME280;5596;46.826;8.650;2023-05-18T13:07:31;96573.38;;;12.78;100.00
11085;BME280;5596;46.826;8.650;2023-05-18T13:10:04;96571.63;;;12.72;100.00
11085;BME280;5596;46.826;8.650;2023-05-18T13:12:34;96576.91;;;12.79;100.00
11085;BME280;5596;46.826;8.650;2023-05-18T13:15:06;96575.53;;;12.65;100.00
11085;BME280;5596;46.826;8.650;2023-05-18T13:17:35;96570.34;;;12.63;100.00